KBKD/BKD METAR and TAF weather

Enter ICAO airport designator
Station Type Date Time Source
KBKD METAR 2019/08/19 22:35 UTC NOAA

KBKD 192235Z AUTO 16010G16KT 5SM HZ CLR 39/14 A2992 RMK AO2 T03890135


Station Type Date Time Source
KBKD Decoded METAR 2019/08/19 22:35 UTC NOAA

Station name not available
Aug 19, 2019 - 06:35 PM EDT / 2019.08.19 2235 UTC
Wind: from the SSE (160 degrees) at 12 MPH (10 KT) gusting to 18 MPH (16 KT):0
Visibility: 5 mile(s):0
Sky conditions: clear
Weather: haze
Temperature: 102.0 F (38.9 C)
Heat index: 101.1 F (38.4 C):1
Dew Point: 56.3 F (13.5 C)
Relative Humidity: 22%
Pressure (altimeter): 29.92 in. Hg (1013 hPa)
ob: KBKD 192235Z AUTO 16010G16KT 5SM HZ CLR 39/14 A2992 RMK AO2 T03890135
cycle: 22

Station Type Date Time Source
KBKD TAF UTC NOAA

Error!

Example: see airport list